createdAt,value
2023-02-15T00:00:06.762Z,10.70
2023-02-15T00:02:34.156Z,11.10
2023-02-15T00:05:00.914Z,10.13
2023-02-15T00:07:27.822Z,11.30
2023-02-15T00:09:54.539Z,11.20
2023-02-15T00:12:21.391Z,10.57
2023-02-15T00:14:48.842Z,11.57
2023-02-15T00:17:15.756Z,10.80
2023-02-15T00:19:42.545Z,11.50
2023-02-15T00:22:09.564Z,11.57
2023-02-15T00:24:36.292Z,11.37
2023-02-15T00:27:03.186Z,11.00
2023-02-15T00:29:30.100Z,11.93
2023-02-15T00:31:56.893Z,11.70
2023-02-15T00:34:27.517Z,13.07
2023-02-15T00:36:54.747Z,11.63
2023-02-15T00:39:21.666Z,11.87
2023-02-15T00:41:48.739Z,10.83
2023-02-15T00:44:16.140Z,11.43
2023-02-15T00:46:43.454Z,12.13
2023-02-15T00:49:11.463Z,11.53
2023-02-15T00:51:39.013Z,13.00
2023-02-15T00:54:06.550Z,12.57
2023-02-15T00:56:33.306Z,11.77
2023-02-15T00:59:00.109Z,12.93
2023-02-15T01:01:26.992Z,12.63
2023-02-15T01:03:53.921Z,12.00
2023-02-15T01:06:20.793Z,12.07
2023-02-15T01:08:48.334Z,13.33
2023-02-15T01:11:22.800Z,11.93
2023-02-15T01:13:58.190Z,12.33
2023-02-15T01:16:29.062Z,13.50
2023-02-15T01:18:56.180Z,11.47
2023-02-15T01:21:27.764Z,12.23
2023-02-15T01:23:54.936Z,12.87
2023-02-15T01:26:24.015Z,12.00
2023-02-15T01:28:50.735Z,12.37
2023-02-15T01:31:21.583Z,13.03
2023-02-15T01:33:49.178Z,11.80
2023-02-15T01:36:18.141Z,10.90
2023-02-15T01:38:45.177Z,11.87
2023-02-15T01:41:21.344Z,12.30
2023-02-15T01:43:54.119Z,13.37
2023-02-15T01:46:28.608Z,13.70
2023-02-15T01:49:06.112Z,12.27
2023-02-15T01:51:38.022Z,12.90
2023-02-15T01:54:30.322Z,13.97
2023-02-15T01:57:04.824Z,12.87
2023-02-15T01:59:34.820Z,12.37
2023-02-15T02:02:06.072Z,11.20
2023-02-15T02:04:56.420Z,12.00
2023-02-15T02:07:28.875Z,12.17
2023-02-15T02:09:56.189Z,12.10
2023-02-15T02:12:25.177Z,11.50
2023-02-15T02:14:54.133Z,10.83
2023-02-15T02:17:52.804Z,10.40
2023-02-15T02:21:03.279Z,12.00
2023-02-15T02:24:06.486Z,11.30
2023-02-15T02:27:31.114Z,10.70
2023-02-15T02:30:34.000Z,12.07
2023-02-15T02:33:45.536Z,10.93
2023-02-15T02:36:30.686Z,10.60
2023-02-15T02:39:28.648Z,10.57
2023-02-15T02:42:17.847Z,10.80
2023-02-15T02:44:51.811Z,11.97
2023-02-15T02:47:27.028Z,10.97
2023-02-15T02:50:05.918Z,10.27
2023-02-15T02:52:45.713Z,11.50
2023-02-15T02:55:45.966Z,10.70
2023-02-15T02:58:47.146Z,10.53
2023-02-15T03:01:22.708Z,12.13
2023-02-15T03:03:56.885Z,11.70
2023-02-15T03:06:34.230Z,11.43
2023-02-15T03:09:21.840Z,14.27
2023-02-15T03:11:49.402Z,12.97
2023-02-15T03:14:19.782Z,12.93
2023-02-15T03:16:49.960Z,12.83
2023-02-15T03:19:38.106Z,13.23
2023-02-15T03:22:13.581Z,13.97
2023-02-15T03:24:54.925Z,15.07
2023-02-15T03:27:28.786Z,14.00
2023-02-15T03:30:00.095Z,14.27
2023-02-15T03:32:32.634Z,14.73
2023-02-15T03:34:59.985Z,13.33
2023-02-15T03:37:41.454Z,13.60
2023-02-15T03:40:38.928Z,12.37
2023-02-15T03:43:25.843Z,11.93
2023-02-15T03:46:01.215Z,11.50
2023-02-15T03:48:38.230Z,11.13
2023-02-15T03:51:31.801Z,11.20
2023-02-15T03:54:00.434Z,11.73
2023-02-15T03:56:27.647Z,13.03
2023-02-15T03:59:13.264Z,12.47
2023-02-15T04:02:08.660Z,11.50
2023-02-15T04:04:45.724Z,13.47
2023-02-15T04:07:14.092Z,13.83
2023-02-15T04:09:59.397Z,12.77
2023-02-15T04:12:26.207Z,12.73
2023-02-15T04:15:11.660Z,12.37
2023-02-15T04:17:39.198Z,12.93
2023-02-15T04:20:25.838Z,13.27
2023-02-15T04:23:11.118Z,11.03
2023-02-15T04:25:37.967Z,11.23
2023-02-15T04:28:04.847Z,11.67
2023-02-15T04:30:31.766Z,10.97
2023-02-15T04:32:58.521Z,11.10
2023-02-15T04:35:25.439Z,11.73
2023-02-15T04:37:52.196Z,12.17
2023-02-15T04:40:19.848Z,11.53
2023-02-15T04:42:50.105Z,12.43
2023-02-15T04:45:18.004Z,11.03
2023-02-15T04:47:45.116Z,12.10
2023-02-15T04:50:12.339Z,11.67
2023-02-15T04:52:39.151Z,11.93
2023-02-15T04:55:06.562Z,11.73
2023-02-15T04:57:33.316Z,11.63
2023-02-15T05:00:00.222Z,11.67
2023-02-15T05:02:27.052Z,10.57
2023-02-15T05:04:53.783Z,11.37
2023-02-15T05:07:21.296Z,11.17
2023-02-15T05:09:48.409Z,11.33
2023-02-15T05:12:15.137Z,11.23
2023-02-15T05:14:41.845Z,12.80
2023-02-15T05:17:08.611Z,12.67
2023-02-15T05:19:35.436Z,11.90
2023-02-15T05:22:02.187Z,12.27
2023-02-15T05:24:47.634Z,12.37
2023-02-15T05:27:33.000Z,11.23
2023-02-15T05:29:59.833Z,12.03
2023-02-15T05:32:27.117Z,12.50
2023-02-15T05:34:53.912Z,12.10
2023-02-15T05:37:20.692Z,12.10
2023-02-15T05:39:47.418Z,12.23
2023-02-15T05:42:14.122Z,12.07
2023-02-15T05:44:40.900Z,12.00
2023-02-15T05:47:08.390Z,11.83
2023-02-15T05:49:35.340Z,12.80
2023-02-15T05:52:02.296Z,11.93
2023-02-15T05:54:29.454Z,12.83
2023-02-15T05:56:57.176Z,13.10
2023-02-15T05:59:23.924Z,11.73
2023-02-15T06:01:50.660Z,12.07
2023-02-15T06:04:17.365Z,12.23
2023-02-15T06:06:44.057Z,11.73
2023-02-15T06:09:13.495Z,12.63
2023-02-15T06:11:40.612Z,13.57
2023-02-15T06:14:07.344Z,12.10
2023-02-15T06:16:34.056Z,10.33
2023-02-15T06:19:02.333Z,12.37
2023-02-15T06:21:30.206Z,13.13
2023-02-15T06:23:57.035Z,13.33
2023-02-15T06:26:23.814Z,12.93
2023-02-15T06:28:50.664Z,11.60
2023-02-15T06:31:17.454Z,13.60
2023-02-15T06:33:44.303Z,12.80
2023-02-15T06:36:11.060Z,13.57
2023-02-15T06:38:37.909Z,13.63
2023-02-15T06:41:04.697Z,13.10
2023-02-15T06:43:31.460Z,13.13
2023-02-15T06:45:58.344Z,13.70
2023-02-15T06:48:25.101Z,12.23
2023-02-15T06:50:51.796Z,12.67
2023-02-15T06:53:18.565Z,12.90
2023-02-15T06:55:45.321Z,13.63
2023-02-15T06:58:12.084Z,13.97
2023-02-15T07:00:38.852Z,14.80
2023-02-15T07:03:05.686Z,13.47
2023-02-15T07:05:34.938Z,13.77
2023-02-15T07:08:02.321Z,14.47
2023-02-15T07:10:29.488Z,13.53
2023-02-15T07:12:56.458Z,13.77
2023-02-15T07:15:23.533Z,13.97
2023-02-15T07:17:50.750Z,13.20
2023-02-15T07:20:21.358Z,11.83
2023-02-15T07:22:49.088Z,13.37
2023-02-15T07:25:16.961Z,14.20
2023-02-15T07:27:45.028Z,12.60
2023-02-15T07:30:15.824Z,13.47
2023-02-15T07:33:04.258Z,14.63
2023-02-15T07:35:31.981Z,12.07
2023-02-15T07:37:58.721Z,11.47
2023-02-15T07:40:25.704Z,12.97
2023-02-15T07:42:55.330Z,12.57
2023-02-15T07:45:22.802Z,11.77
2023-02-15T07:47:49.648Z,10.63
2023-02-15T07:50:16.509Z,12.33
2023-02-15T07:52:43.293Z,11.63
2023-02-15T07:55:13.226Z,13.27
2023-02-15T07:57:47.224Z,12.27
2023-02-15T08:00:16.552Z,12.50
2023-02-15T08:02:48.615Z,12.80
2023-02-15T08:05:17.768Z,11.77
2023-02-15T08:07:44.516Z,11.00
2023-02-15T08:10:31.220Z,11.13
2023-02-15T08:12:57.941Z,10.33
2023-02-15T08:15:24.635Z,11.70
2023-02-15T08:17:51.367Z,9.57
2023-02-15T08:20:18.248Z,11.07
2023-02-15T08:22:44.968Z,10.23
2023-02-15T08:25:12.013Z,9.60
2023-02-15T08:27:38.759Z,10.17
2023-02-15T08:30:06.348Z,8.37
2023-02-15T08:32:33.076Z,9.47
2023-02-15T08:34:59.836Z,9.13
2023-02-15T08:37:27.038Z,8.70
2023-02-15T08:39:53.764Z,7.87
2023-02-15T08:42:21.814Z,10.47
2023-02-15T08:44:51.347Z,11.35
2023-02-15T08:47:18.049Z,9.47
2023-02-15T08:49:44.767Z,8.17
2023-02-15T08:52:11.497Z,9.07
2023-02-15T08:54:38.195Z,9.13
2023-02-15T08:57:04.933Z,9.17
2023-02-15T08:59:31.715Z,8.70
2023-02-15T09:01:58.481Z,9.47
2023-02-15T09:04:25.223Z,7.93
2023-02-15T09:06:53.041Z,9.33
2023-02-15T09:09:20.923Z,9.38
2023-02-15T09:11:55.838Z,8.77
2023-02-15T09:14:27.332Z,8.80
2023-02-15T09:16:54.530Z,9.50
2023-02-15T09:19:23.831Z,10.93
2023-02-15T09:21:51.190Z,9.97
2023-02-15T09:24:18.575Z,9.53
2023-02-15T09:26:48.543Z,9.53
2023-02-15T09:29:16.935Z,9.33
2023-02-15T09:31:50.844Z,9.97
2023-02-15T09:34:21.388Z,9.60
2023-02-15T09:36:49.341Z,9.27
2023-02-15T09:39:24.809Z,9.70
2023-02-15T09:42:27.260Z,9.93
2023-02-15T09:45:15.043Z,9.47
2023-02-15T09:48:02.839Z,8.07
2023-02-15T09:51:07.920Z,8.47
2023-02-15T09:54:16.599Z,8.67
2023-02-15T09:57:11.456Z,9.33
2023-02-15T10:00:13.034Z,7.70
2023-02-15T10:03:17.369Z,8.40
2023-02-15T10:05:58.789Z,9.63
2023-02-15T10:09:07.464Z,8.20
2023-02-15T10:12:13.149Z,9.67
2023-02-15T10:15:08.072Z,8.87
2023-02-15T10:18:02.858Z,9.43
2023-02-15T10:20:58.940Z,10.27
2023-02-15T10:24:13.374Z,10.40
2023-02-15T10:26:48.935Z,10.32
2023-02-15T10:29:39.225Z,10.27
2023-02-15T10:32:25.573Z,9.33
2023-02-15T10:35:31.941Z,10.70
2023-02-15T10:38:49.322Z,9.63
2023-02-15T10:41:41.164Z,10.50
2023-02-15T10:45:02.652Z,9.17
2023-02-15T10:47:57.238Z,10.70
2023-02-15T10:50:27.866Z,9.73
2023-02-15T10:53:30.592Z,8.67
2023-02-15T10:56:22.010Z,9.50
2023-02-15T10:59:19.968Z,9.00
2023-02-15T11:02:20.002Z,9.70
2023-02-15T11:05:03.899Z,8.77
2023-02-15T11:07:47.607Z,9.03
2023-02-15T11:10:41.771Z,9.73
2023-02-15T11:13:17.742Z,9.17
2023-02-15T11:16:03.932Z,9.73
2023-02-15T11:19:02.127Z,9.80
2023-02-15T11:21:37.776Z,9.77
2023-02-15T11:24:22.216Z,9.10
2023-02-15T11:26:58.385Z,10.80
2023-02-15T11:30:01.432Z,10.00
2023-02-15T11:32:47.338Z,10.23
2023-02-15T11:35:13.991Z,9.20
2023-02-15T11:38:21.179Z,9.00
2023-02-15T11:41:15.376Z,9.37
2023-02-15T11:44:06.156Z,8.70
2023-02-15T11:46:33.139Z,8.43
2023-02-15T11:49:00.022Z,8.73
2023-02-15T11:51:29.642Z,8.50
2023-02-15T11:53:57.587Z,8.97
2023-02-15T11:56:27.317Z,9.20
2023-02-15T11:59:08.218Z,10.40
2023-02-15T12:01:43.397Z,9.80
2023-02-15T12:04:53.059Z,10.50
2023-02-15T12:07:30.483Z,9.30
2023-02-15T12:10:28.609Z,10.07
2023-02-15T12:13:18.332Z,9.60
2023-02-15T12:15:49.932Z,9.00
2023-02-15T12:18:36.748Z,10.15
2023-02-15T12:21:12.772Z,9.63
2023-02-15T12:23:53.317Z,10.90
2023-02-15T12:26:36.408Z,9.30
2023-02-15T12:29:17.372Z,10.13
2023-02-15T12:31:52.571Z,10.53
2023-02-15T12:34:27.589Z,11.60
2023-02-15T12:37:01.071Z,11.13
2023-02-15T12:39:30.649Z,11.87
2023-02-15T12:42:27.237Z,12.13
2023-02-15T12:44:55.971Z,12.57
2023-02-15T12:47:28.977Z,12.20
2023-02-15T12:50:23.910Z,12.70
2023-02-15T12:53:19.923Z,12.47
2023-02-15T12:56:00.217Z,12.17
2023-02-15T12:58:31.837Z,13.57
2023-02-15T13:01:11.764Z,13.10
2023-02-15T13:03:50.412Z,13.53
2023-02-15T13:06:19.484Z,13.60
2023-02-15T13:08:58.210Z,14.13
2023-02-15T13:11:35.245Z,14.80
2023-02-15T13:14:16.472Z,15.67
2023-02-15T13:16:47.051Z,14.93
2023-02-15T13:19:21.250Z,16.17
2023-02-15T13:21:52.380Z,14.70
2023-02-15T13:24:26.494Z,16.57
2023-02-15T13:27:15.390Z,16.23
2023-02-15T13:29:49.064Z,14.53
2023-02-15T13:32:41.169Z,16.10
2023-02-15T13:35:17.896Z,15.83
2023-02-15T13:38:16.745Z,17.30
2023-02-15T13:40:56.042Z,16.07
2023-02-15T13:44:00.290Z,17.13
2023-02-15T13:46:48.933Z,15.50
2023-02-15T13:50:10.643Z,15.47
2023-02-15T13:52:58.811Z,16.27
2023-02-15T13:56:17.510Z,16.93
2023-02-15T13:59:08.570Z,16.87
2023-02-15T14:01:47.017Z,16.40
2023-02-15T14:04:35.380Z,15.63
2023-02-15T14:07:53.979Z,16.10
2023-02-15T14:11:09.283Z,14.57
2023-02-15T14:14:10.845Z,14.50
2023-02-15T14:17:48.433Z,14.00
2023-02-15T14:20:42.101Z,12.23
2023-02-15T14:23:58.182Z,13.53
2023-02-15T14:27:05.063Z,14.27
2023-02-15T14:29:57.176Z,12.80
2023-02-15T14:32:37.862Z,12.77
2023-02-15T14:35:13.581Z,12.13
2023-02-15T14:37:53.620Z,12.43
2023-02-15T14:41:04.103Z,12.17
2023-02-15T14:43:50.034Z,12.47
2023-02-15T14:46:44.180Z,14.67
2023-02-15T14:49:28.691Z,13.03
2023-02-15T14:52:02.143Z,12.63
2023-02-15T14:54:31.256Z,12.93
2023-02-15T14:57:04.005Z,14.23
2023-02-15T14:59:36.305Z,12.90
2023-02-15T15:02:08.779Z,11.03
2023-02-15T15:05:10.405Z,14.43
2023-02-15T15:07:44.803Z,15.67
2023-02-15T15:10:17.638Z,16.40
2023-02-15T15:12:53.341Z,16.92
2023-02-15T15:15:31.659Z,17.67
2023-02-15T15:18:11.416Z,20.43
2023-02-15T15:20:45.681Z,17.13
2023-02-15T15:23:20.798Z,21.73
2023-02-15T15:25:56.731Z,19.50
2023-02-15T15:28:35.537Z,18.53
2023-02-15T15:31:39.731Z,17.83
2023-02-15T15:34:32.979Z,17.57
2023-02-15T15:37:28.965Z,18.00
2023-02-15T15:40:53.427Z,18.57
2023-02-15T15:43:50.765Z,17.30
2023-02-15T15:46:46.280Z,16.90
2023-02-15T15:49:22.522Z,17.87
2023-02-15T15:51:50.308Z,16.93
2023-02-15T15:54:19.983Z,16.43
2023-02-15T15:56:57.879Z,16.00
2023-02-15T15:59:35.330Z,17.47
2023-02-15T16:02:08.207Z,15.77
2023-02-15T16:04:36.473Z,20.40
2023-02-15T16:07:25.854Z,18.20
2023-02-15T16:10:02.317Z,18.77
2023-02-15T16:12:33.957Z,17.30
2023-02-15T16:15:14.873Z,17.17
2023-02-15T16:17:46.290Z,15.97
2023-02-15T16:20:22.617Z,16.17
2023-02-15T16:23:13.461Z,18.67
2023-02-15T16:26:11.314Z,17.93
2023-02-15T16:28:39.662Z,18.27
2023-02-15T16:31:16.341Z,17.87
2023-02-15T16:33:45.822Z,18.63
2023-02-15T16:36:27.455Z,20.77
2023-02-15T16:38:54.109Z,22.53
2023-02-15T16:41:30.604Z,20.03
2023-02-15T16:44:06.678Z,20.40
2023-02-15T16:46:49.011Z,20.57
2023-02-15T16:49:22.581Z,22.93
2023-02-15T16:52:22.020Z,25.27
2023-02-15T16:54:58.278Z,26.80
2023-02-15T16:57:33.069Z,24.97
2023-02-15T17:00:07.017Z,24.37
2023-02-15T17:02:56.289Z,24.50
2023-02-15T17:05:23.871Z,26.60
2023-02-15T17:08:16.693Z,24.47
2023-02-15T17:11:02.800Z,25.20
2023-02-15T17:13:30.438Z,24.80
2023-02-15T17:16:00.500Z,26.13
2023-02-15T17:18:40.129Z,27.63
2023-02-15T17:21:20.318Z,26.67
2023-02-15T17:23:51.084Z,26.67
2023-02-15T17:26:33.327Z,24.73
2023-02-15T17:29:31.505Z,23.37
2023-02-15T17:31:59.146Z,23.67
2023-02-15T17:34:48.689Z,23.17
2023-02-15T17:37:29.308Z,23.40
2023-02-15T17:39:58.961Z,24.23
2023-02-15T17:42:26.034Z,27.07
2023-02-15T17:44:52.847Z,25.50
2023-02-15T17:47:25.784Z,23.87
2023-02-15T17:49:54.507Z,24.73
2023-02-15T17:52:21.285Z,22.33
2023-02-15T17:55:06.308Z,24.53
2023-02-15T17:57:34.135Z,25.33
2023-02-15T18:00:19.284Z,26.90
2023-02-15T18:03:05.750Z,28.03
2023-02-15T18:05:51.038Z,29.03
2023-02-15T18:08:44.599Z,30.43
2023-02-15T18:11:30.754Z,26.40
2023-02-15T18:14:01.272Z,28.27
2023-02-15T18:16:33.854Z,28.87
2023-02-15T18:19:01.668Z,24.90
2023-02-15T18:21:28.472Z,24.57
2023-02-15T18:23:55.234Z,25.23
2023-02-15T18:26:27.272Z,27.53
2023-02-15T18:28:54.271Z,26.07
2023-02-15T18:31:22.898Z,27.03
2023-02-15T18:33:59.316Z,28.53
2023-02-15T18:36:39.246Z,27.70
2023-02-15T18:39:38.634Z,30.47
2023-02-15T18:42:07.012Z,26.87
2023-02-15T18:44:33.729Z,26.37
2023-02-15T18:47:00.525Z,27.27
2023-02-15T18:49:27.396Z,27.33
2023-02-15T18:51:54.216Z,27.37
2023-02-15T18:54:25.154Z,25.30
2023-02-15T18:56:58.378Z,26.80
2023-02-15T18:59:27.625Z,25.67
2023-02-15T19:01:55.573Z,25.07
2023-02-15T19:04:25.369Z,27.60
2023-02-15T19:06:52.773Z,25.13
2023-02-15T19:09:24.170Z,25.10
2023-02-15T19:11:54.665Z,27.53
2023-02-15T19:14:33.218Z,26.93
2023-02-15T19:17:01.052Z,25.47
2023-02-15T19:19:28.220Z,26.10
2023-02-15T19:21:55.888Z,26.00
2023-02-15T19:24:38.819Z,27.53
2023-02-15T19:27:11.418Z,26.73
2023-02-15T19:29:38.199Z,24.10
2023-02-15T19:32:05.308Z,25.40
2023-02-15T19:34:32.159Z,22.87
2023-02-15T19:36:59.288Z,24.77
2023-02-15T19:39:38.284Z,23.73
2023-02-15T19:42:06.152Z,22.67
2023-02-15T19:44:33.262Z,23.43
2023-02-15T19:47:00.002Z,24.17
2023-02-15T19:49:26.735Z,22.63
2023-02-15T19:51:53.443Z,24.23
2023-02-15T19:54:32.939Z,24.00
2023-02-15T19:57:00.592Z,27.10
2023-02-15T19:59:32.917Z,24.83
2023-02-15T20:02:00.163Z,28.43
2023-02-15T20:04:27.243Z,24.30
2023-02-15T20:06:57.638Z,25.33
2023-02-15T20:09:30.045Z,25.83
2023-02-15T20:11:57.117Z,25.43
2023-02-15T20:14:24.158Z,25.03
2023-02-15T20:16:51.217Z,24.60
2023-02-15T20:19:17.976Z,25.70
2023-02-15T20:21:52.032Z,27.00
2023-02-15T20:24:21.698Z,25.47
2023-02-15T20:26:48.662Z,26.07
2023-02-15T20:29:18.452Z,24.97
2023-02-15T20:31:45.873Z,25.57
2023-02-15T20:34:12.828Z,25.37
2023-02-15T20:36:41.065Z,24.70
2023-02-15T20:39:20.414Z,23.23
2023-02-15T20:41:47.659Z,24.23
2023-02-15T20:44:24.666Z,21.70
2023-02-15T20:46:56.623Z,21.90
2023-02-15T20:49:25.601Z,23.60
2023-02-15T20:51:55.114Z,25.53
2023-02-15T20:54:27.075Z,24.80
2023-02-15T20:56:54.438Z,24.97
2023-02-15T20:59:26.294Z,25.03
2023-02-15T21:01:59.859Z,23.47
2023-02-15T21:04:32.069Z,24.17
2023-02-15T21:07:00.821Z,23.50
2023-02-15T21:09:28.251Z,25.53
2023-02-15T21:12:01.223Z,24.87
2023-02-15T21:14:29.028Z,24.80
2023-02-15T21:16:55.965Z,23.57
2023-02-15T21:19:24.416Z,24.53
2023-02-15T21:21:53.498Z,24.23
2023-02-15T21:24:27.354Z,24.80
2023-02-15T21:26:56.064Z,22.10
2023-02-15T21:29:26.353Z,24.83
2023-02-15T21:31:53.683Z,23.23
2023-02-15T21:34:21.046Z,21.53
2023-02-15T21:36:50.530Z,22.40
2023-02-15T21:39:26.925Z,21.93
2023-02-15T21:42:14.242Z,22.90
2023-02-15T21:44:59.653Z,21.90
2023-02-15T21:47:48.692Z,23.63
2023-02-15T21:50:44.460Z,23.10
2023-02-15T21:53:21.411Z,23.97
2023-02-15T21:55:48.855Z,23.80
2023-02-15T21:58:26.032Z,23.73
2023-02-15T22:00:55.832Z,24.83
2023-02-15T22:03:35.327Z,24.73
2023-02-15T22:06:03.596Z,23.33
2023-02-15T22:08:35.522Z,24.70
2023-02-15T22:11:02.749Z,22.60
2023-02-15T22:13:33.773Z,23.63
2023-02-15T22:16:00.541Z,22.53
2023-02-15T22:18:33.781Z,22.43
2023-02-15T22:21:02.654Z,22.47
2023-02-15T22:23:29.979Z,23.90
2023-02-15T22:26:03.952Z,23.97
2023-02-15T22:28:38.445Z,21.77
2023-02-15T22:31:12.889Z,21.57
2023-02-15T22:33:40.306Z,21.30
2023-02-15T22:36:24.770Z,20.93
2023-02-15T22:38:52.308Z,22.87
2023-02-15T22:41:20.209Z,21.67
2023-02-15T22:43:47.799Z,21.33
2023-02-15T22:46:19.939Z,22.37
2023-02-15T22:48:50.084Z,22.93
2023-02-15T22:51:21.658Z,19.90
2023-02-15T22:53:52.164Z,21.87
2023-02-15T22:56:26.943Z,24.20
2023-02-15T22:59:02.804Z,20.70
2023-02-15T23:01:33.696Z,20.47
2023-02-15T23:04:03.465Z,19.23
2023-02-15T23:06:31.559Z,20.60
2023-02-15T23:09:00.590Z,20.80
2023-02-15T23:11:27.560Z,20.47
2023-02-15T23:13:54.308Z,19.90
2023-02-15T23:16:21.091Z,19.30
2023-02-15T23:18:49.125Z,22.00
2023-02-15T23:21:29.656Z,20.50
2023-02-15T23:24:19.838Z,21.20
2023-02-15T23:26:48.421Z,22.23
2023-02-15T23:29:23.826Z,22.13
2023-02-15T23:31:53.614Z,22.40
2023-02-15T23:34:29.238Z,20.33
2023-02-15T23:36:56.606Z,22.80
2023-02-15T23:39:45.923Z,21.27
2023-02-15T23:42:25.854Z,21.33
2023-02-15T23:44:52.645Z,21.40
2023-02-15T23:47:52.370Z,20.87
2023-02-15T23:50:26.875Z,23.53
2023-02-15T23:52:55.841Z,23.97
2023-02-15T23:55:25.134Z,23.03
2023-02-15T23:57:51.831Z,22.20
